createdAt,value
2022-12-03T00:02:30.042Z,1.90
2022-12-03T00:06:34.656Z,1.90
2022-12-03T00:10:36.559Z,1.90
2022-12-03T00:14:44.197Z,1.90
2022-12-03T00:18:46.451Z,1.90
2022-12-03T00:22:48.220Z,1.90
2022-12-03T00:26:49.875Z,1.90
2022-12-03T00:30:54.018Z,1.90
2022-12-03T00:34:56.065Z,2.00
2022-12-03T00:38:57.852Z,1.90
2022-12-03T00:42:59.506Z,1.90
2022-12-03T00:47:01.241Z,2.00
2022-12-03T00:51:02.990Z,2.00
2022-12-03T00:55:04.950Z,2.10
2022-12-03T00:59:06.630Z,2.00
2022-12-03T01:03:08.249Z,2.00
2022-12-03T01:07:09.906Z,2.00
2022-12-03T01:11:31.504Z,1.90
2022-12-03T01:15:33.327Z,2.00
2022-12-03T01:19:35.796Z,2.10
2022-12-03T01:23:37.471Z,2.00
2022-12-03T01:27:39.111Z,2.00
2022-12-03T01:31:59.334Z,2.10
2022-12-03T01:36:00.987Z,2.00
2022-12-03T01:40:03.460Z,2.10
2022-12-03T01:44:33.483Z,2.00
2022-12-03T01:48:37.735Z,2.00
2022-12-03T01:52:39.683Z,2.10
2022-12-03T01:56:41.388Z,2.10
2022-12-03T02:00:43.062Z,2.10
2022-12-03T02:04:44.840Z,2.10
2022-12-03T02:08:47.826Z,2.10
2022-12-03T02:12:58.924Z,2.10
2022-12-03T02:17:00.616Z,2.10
2022-12-03T02:21:35.344Z,2.10
2022-12-03T02:25:38.066Z,2.10
2022-12-03T02:29:39.798Z,2.10
2022-12-03T02:33:41.574Z,2.10
2022-12-03T02:37:44.893Z,2.00
2022-12-03T02:42:05.161Z,2.10
2022-12-03T02:46:08.561Z,2.10
2022-12-03T02:50:13.306Z,2.10
2022-12-03T02:54:14.974Z,2.10
2022-12-03T02:58:17.751Z,2.10
2022-12-03T03:02:19.622Z,2.10
2022-12-03T03:06:21.799Z,2.00
2022-12-03T03:10:24.005Z,2.00
2022-12-03T03:14:25.752Z,2.00
2022-12-03T03:18:27.438Z,1.90
2022-12-03T03:22:34.050Z,2.00
2022-12-03T03:26:35.763Z,2.00
2022-12-03T03:30:39.279Z,1.90
2022-12-03T03:34:40.939Z,2.00
2022-12-03T03:38:43.631Z,2.00
2022-12-03T03:42:45.491Z,1.90
2022-12-03T03:46:48.689Z,1.90
2022-12-03T03:50:51.502Z,1.90
2022-12-03T03:54:53.328Z,2.00
2022-12-03T03:58:56.238Z,1.80
2022-12-03T04:02:57.979Z,1.80
2022-12-03T04:06:59.810Z,1.80
2022-12-03T04:11:20.799Z,1.80
2022-12-03T04:15:23.366Z,1.80
2022-12-03T04:19:25.010Z,1.80
2022-12-03T04:23:30.875Z,1.80
2022-12-03T04:27:51.634Z,1.80
2022-12-03T04:32:12.198Z,1.80
2022-12-03T04:36:13.856Z,1.90
2022-12-03T04:40:34.184Z,1.70
2022-12-03T04:44:38.859Z,1.80
2022-12-03T04:48:40.464Z,1.80
2022-12-03T04:52:42.164Z,1.80
2022-12-03T04:56:44.018Z,1.80
2022-12-03T05:00:45.702Z,1.80
2022-12-03T05:04:47.388Z,1.70
2022-12-03T05:08:49.092Z,1.70
2022-12-03T05:12:50.767Z,1.80
2022-12-03T05:16:52.471Z,1.70
2022-12-03T05:20:54.129Z,1.70
2022-12-03T05:24:56.218Z,1.70
2022-12-03T05:28:58.094Z,1.70
2022-12-03T05:32:59.969Z,1.70
2022-12-03T05:37:01.637Z,1.70
2022-12-03T05:41:23.559Z,1.70
2022-12-03T05:45:27.516Z,1.60
2022-12-03T05:49:29.162Z,1.60
2022-12-03T05:53:30.819Z,1.60
2022-12-03T05:57:32.544Z,1.60
2022-12-03T06:01:34.384Z,1.60
2022-12-03T06:05:36.080Z,1.60
2022-12-03T06:09:37.832Z,1.70
2022-12-03T06:13:39.504Z,1.70
2022-12-03T06:17:41.344Z,1.70
2022-12-03T06:21:42.975Z,1.50
2022-12-03T06:25:44.629Z,1.50
2022-12-03T06:29:46.407Z,1.50
2022-12-03T06:33:48.016Z,1.40
2022-12-03T06:37:49.759Z,1.40
2022-12-03T06:41:51.530Z,1.30
2022-12-03T06:45:53.172Z,1.30
2022-12-03T06:49:54.870Z,1.30
2022-12-03T06:53:56.546Z,1.30
2022-12-03T06:57:58.169Z,1.30
2022-12-03T07:02:00.727Z,1.20
2022-12-03T07:06:02.425Z,1.20
2022-12-03T07:10:04.650Z,1.20
2022-12-03T07:14:07.841Z,1.30
2022-12-03T07:18:09.462Z,1.30
2022-12-03T07:22:11.068Z,1.30
2022-12-03T07:26:12.747Z,1.30
2022-12-03T07:30:15.427Z,1.30
2022-12-03T07:34:17.258Z,1.30
2022-12-03T07:38:19.010Z,1.30
2022-12-03T07:42:20.630Z,1.20
2022-12-03T07:46:22.409Z,1.20
2022-12-03T07:50:24.343Z,1.20
2022-12-03T07:54:26.244Z,1.30
2022-12-03T07:58:27.865Z,1.20
2022-12-03T08:02:29.576Z,1.20
2022-12-03T08:06:31.233Z,1.20
2022-12-03T08:10:32.885Z,1.30
2022-12-03T08:14:35.848Z,1.30
2022-12-03T08:18:37.547Z,1.30
2022-12-03T08:22:40.624Z,1.40
2022-12-03T08:26:44.259Z,1.40
2022-12-03T08:30:58.794Z,1.40
2022-12-03T08:35:01.943Z,1.50
2022-12-03T08:39:25.719Z,1.50
2022-12-03T08:43:29.123Z,1.50
2022-12-03T08:47:30.783Z,1.40
2022-12-03T08:51:32.515Z,1.40
2022-12-03T08:55:42.421Z,1.50
2022-12-03T08:59:45.616Z,1.50
2022-12-03T09:03:50.982Z,1.50
2022-12-03T09:07:52.731Z,1.60
2022-12-03T09:11:54.701Z,1.70
2022-12-03T09:15:56.477Z,1.90
2022-12-03T09:19:58.147Z,2.10
2022-12-03T09:23:59.798Z,2.10
2022-12-03T09:28:01.473Z,2.00
2022-12-03T09:32:03.403Z,2.00
2022-12-03T09:36:05.510Z,2.10
2022-12-03T09:40:08.380Z,2.00
2022-12-03T09:44:17.526Z,2.00
2022-12-03T09:48:21.524Z,2.10
2022-12-03T09:52:26.884Z,2.20
2022-12-03T09:56:29.509Z,2.00
2022-12-03T10:00:31.199Z,2.10
2022-12-03T10:04:33.076Z,2.10
2022-12-03T10:08:34.753Z,2.10
2022-12-03T10:12:36.383Z,2.10
2022-12-03T10:16:40.167Z,2.20
2022-12-03T10:20:41.906Z,2.20
2022-12-03T10:24:44.674Z,2.10
2022-12-03T10:28:47.514Z,2.30
2022-12-03T10:32:51.178Z,2.30
2022-12-03T10:37:19.902Z,2.40
2022-12-03T10:41:24.930Z,2.40
2022-12-03T10:45:26.620Z,2.30
2022-12-03T10:49:28.616Z,2.20
2022-12-03T10:53:33.178Z,2.40
2022-12-03T10:57:34.775Z,2.50
2022-12-03T11:01:36.704Z,2.70
2022-12-03T11:05:38.409Z,2.80
2022-12-03T11:09:44.520Z,2.80
2022-12-03T11:14:00.572Z,2.80
2022-12-03T11:18:02.242Z,2.90
2022-12-03T11:22:04.695Z,2.90
2022-12-03T11:26:06.418Z,2.80
2022-12-03T11:30:10.337Z,2.90
2022-12-03T11:34:21.152Z,2.80
2022-12-03T11:38:38.243Z,2.90
2022-12-03T11:42:40.807Z,2.90
2022-12-03T11:46:45.011Z,2.80
2022-12-03T11:50:53.440Z,2.90
2022-12-03T11:55:01.559Z,2.90
2022-12-03T11:59:12.365Z,3.00
2022-12-03T12:03:23.153Z,2.90
2022-12-03T12:07:34.431Z,2.90
2022-12-03T12:11:40.383Z,2.80
2022-12-03T12:15:44.180Z,2.90
2022-12-03T12:19:51.052Z,2.80
2022-12-03T12:23:55.814Z,2.90
2022-12-03T12:27:57.476Z,2.90
2022-12-03T12:32:14.986Z,2.80
2022-12-03T12:36:16.757Z,2.80
2022-12-03T12:40:19.585Z,2.60
2022-12-03T12:44:23.490Z,2.60
2022-12-03T12:48:30.864Z,2.60
2022-12-03T12:52:32.535Z,2.60
2022-12-03T12:56:34.194Z,2.50
2022-12-03T13:00:35.915Z,2.60
2022-12-03T13:04:40.099Z,2.60
2022-12-03T13:08:46.979Z,2.70
2022-12-03T13:12:48.830Z,2.60
2022-12-03T13:16:52.333Z,2.50
2022-12-03T13:20:55.743Z,2.50
2022-12-03T13:24:59.164Z,2.50
2022-12-03T13:29:06.584Z,2.60
2022-12-03T13:33:27.457Z,2.40
2022-12-03T13:37:29.087Z,2.50
2022-12-03T13:41:49.472Z,2.50
2022-12-03T13:45:54.087Z,2.50
2022-12-03T13:50:03.423Z,2.50
2022-12-03T13:54:14.446Z,2.40
2022-12-03T13:58:17.750Z,2.40
2022-12-03T14:02:19.459Z,2.40
2022-12-03T14:06:21.228Z,2.40
2022-12-03T14:10:22.875Z,2.40
2022-12-03T14:14:24.520Z,2.40
2022-12-03T14:18:26.143Z,2.40
2022-12-03T14:22:28.135Z,2.40
2022-12-03T14:26:29.819Z,2.20
2022-12-03T14:30:31.458Z,2.20
2022-12-03T14:34:33.209Z,2.30
2022-12-03T14:38:34.839Z,2.30
2022-12-03T14:42:37.189Z,2.20
2022-12-03T14:46:38.899Z,2.10
2022-12-03T14:50:40.564Z,2.20
2022-12-03T14:54:42.964Z,2.10
2022-12-03T14:58:44.705Z,2.10
2022-12-03T15:02:46.363Z,2.10
2022-12-03T15:06:48.104Z,2.00
2022-12-03T15:10:49.755Z,2.00
2022-12-03T15:14:51.404Z,1.90
2022-12-03T15:18:53.545Z,1.90
2022-12-03T15:22:55.211Z,1.90
2022-12-03T15:26:57.052Z,1.90
2022-12-03T15:30:58.700Z,1.90
2022-12-03T15:35:00.308Z,1.90
2022-12-03T15:39:02.201Z,1.80
2022-12-03T15:43:04.922Z,1.90
2022-12-03T15:47:06.530Z,1.90
2022-12-03T15:51:08.367Z,1.90
2022-12-03T15:55:10.774Z,1.90
2022-12-03T15:59:12.994Z,1.80
2022-12-03T16:03:14.764Z,1.80
2022-12-03T16:07:16.462Z,1.80
2022-12-03T16:11:18.102Z,1.80
2022-12-03T16:15:25.145Z,1.90
2022-12-03T16:19:28.523Z,1.90
2022-12-03T16:23:30.123Z,1.80
2022-12-03T16:27:31.756Z,1.90
2022-12-03T16:31:33.454Z,1.80
2022-12-03T16:35:35.223Z,1.80
2022-12-03T16:39:36.835Z,1.70
2022-12-03T16:43:38.642Z,1.70
2022-12-03T16:47:40.366Z,1.80
2022-12-03T16:51:42.015Z,1.80
2022-12-03T16:55:43.659Z,1.70
2022-12-03T16:59:45.286Z,1.70
2022-12-03T17:03:46.949Z,1.70
2022-12-03T17:07:48.616Z,1.70
2022-12-03T17:11:50.322Z,1.80
2022-12-03T17:15:52.016Z,1.70
2022-12-03T17:19:54.112Z,1.70
2022-12-03T17:23:56.050Z,1.70
2022-12-03T17:27:57.655Z,1.70
2022-12-03T17:31:59.391Z,1.70
2022-12-03T17:36:01.136Z,1.70
2022-12-03T17:40:05.158Z,1.60
2022-12-03T17:44:10.719Z,1.60
2022-12-03T17:48:14.531Z,1.60
2022-12-03T17:52:16.148Z,1.70
2022-12-03T17:56:17.749Z,1.60
2022-12-03T18:00:19.587Z,1.60
2022-12-03T18:04:21.292Z,1.60
2022-12-03T18:08:23.064Z,1.60
2022-12-03T18:12:25.018Z,1.60
2022-12-03T18:16:27.380Z,1.60
2022-12-03T18:20:29.079Z,1.60
2022-12-03T18:24:30.844Z,1.60
2022-12-03T18:28:32.607Z,1.60
2022-12-03T18:32:34.278Z,1.50
2022-12-03T18:36:36.517Z,1.50
2022-12-03T18:40:38.398Z,1.50
2022-12-03T18:44:43.730Z,1.50
2022-12-03T18:48:49.381Z,1.60
2022-12-03T18:52:51.043Z,1.60
2022-12-03T18:56:52.637Z,1.50
2022-12-03T19:00:54.270Z,1.60
2022-12-03T19:04:56.005Z,1.50
2022-12-03T19:08:57.839Z,1.60
2022-12-03T19:12:59.433Z,1.50
2022-12-03T19:17:01.990Z,1.50
2022-12-03T19:21:12.523Z,1.60
2022-12-03T19:25:14.243Z,1.60
2022-12-03T19:29:15.877Z,1.60
2022-12-03T19:33:18.303Z,1.50
2022-12-03T19:37:20.142Z,1.50
2022-12-03T19:41:22.731Z,1.50
2022-12-03T19:45:24.463Z,1.50
2022-12-03T19:49:26.431Z,1.50
2022-12-03T19:53:29.684Z,1.40
2022-12-03T19:57:31.324Z,1.50
2022-12-03T20:01:35.115Z,1.50
2022-12-03T20:05:40.757Z,1.50
2022-12-03T20:09:42.440Z,1.40
2022-12-03T20:13:44.917Z,1.40
2022-12-03T20:17:46.532Z,1.40
2022-12-03T20:21:48.184Z,1.40
2022-12-03T20:25:49.843Z,1.40
2022-12-03T20:29:51.605Z,1.40
2022-12-03T20:33:57.178Z,1.40
2022-12-03T20:37:58.849Z,1.40
2022-12-03T20:42:00.512Z,1.30
2022-12-03T20:46:12.549Z,1.30
2022-12-03T20:50:14.205Z,1.40
2022-12-03T20:54:16.238Z,1.30
2022-12-03T20:58:17.866Z,1.40
2022-12-03T21:02:19.667Z,1.40
2022-12-03T21:06:22.420Z,1.40
2022-12-03T21:10:35.939Z,1.30
2022-12-03T21:14:37.587Z,1.40
2022-12-03T21:18:39.730Z,1.40
2022-12-03T21:22:41.430Z,1.40
2022-12-03T21:26:43.071Z,1.40
2022-12-03T21:30:44.752Z,1.40
2022-12-03T21:34:46.380Z,1.40
2022-12-03T21:38:48.335Z,1.40
2022-12-03T21:42:49.929Z,1.40
2022-12-03T21:47:11.391Z,1.40
2022-12-03T21:51:14.933Z,1.40
2022-12-03T21:55:16.719Z,1.50
2022-12-03T21:59:18.360Z,1.40
2022-12-03T22:03:19.973Z,1.50
2022-12-03T22:07:21.605Z,1.50
2022-12-03T22:11:24.575Z,1.50
2022-12-03T22:15:26.184Z,1.50
2022-12-03T22:19:27.866Z,1.50
2022-12-03T22:23:30.725Z,1.40
2022-12-03T22:27:32.593Z,1.40
2022-12-03T22:31:34.278Z,1.40
2022-12-03T22:35:35.948Z,1.40
2022-12-03T22:39:37.601Z,1.40
2022-12-03T22:43:39.542Z,1.40
2022-12-03T22:47:41.171Z,1.40
2022-12-03T22:51:46.186Z,1.40
2022-12-03T22:55:58.889Z,1.40
2022-12-03T23:00:00.548Z,1.40
2022-12-03T23:04:02.647Z,1.40
2022-12-03T23:08:10.261Z,1.30
2022-12-03T23:12:12.153Z,1.20
2022-12-03T23:16:16.563Z,1.30
2022-12-03T23:20:18.450Z,1.30
2022-12-03T23:24:20.120Z,1.30
2022-12-03T23:28:21.789Z,1.30
2022-12-03T23:32:23.441Z,1.30
2022-12-03T23:36:27.323Z,1.30
2022-12-03T23:40:28.963Z,1.30
2022-12-03T23:44:30.705Z,1.20
2022-12-03T23:48:32.539Z,1.20
2022-12-03T23:52:36.011Z,1.20
2022-12-03T23:56:39.290Z,1.20
